Oak Harbor, WA (98278)

2:21 PM PST on February 05, 2016 (GMT -0800)
Crosswoods | | Change Station
CLOSE
Current Station
Personal Weather Station
Location: Oak Harbor, WA
Elevation: 150 ft
Nearby Weather Stations
Active Advisory: Wind Advisory Active Notice: Public Information Statement

Elev 150 ft 48.29 °N, 122.68 °W | Updated 34 seconds ago

Overcast
Overcast
53.6 °F
Feels Like 53.6 °F
N
6.5
Wind Variable Wind from ENE
Gusts 7.4 mph

Today
High -- | Low -- °F
--% Chance of Precip.
Yesterday
High -- | Low -- °F
Precip. -- in
Pressure 29.97 in
Visibility 10.0 miles
Clouds Scattered Clouds 3000 ft
Scattered Clouds 7500 ft
Mostly Cloudy 9500 ft
Overcast 14000 ft
Dew Point 37 °F
Humidity 53%
Rainfall 0.00 in
Snow Depth Not available.
7:34 AM 5:15 PM
Waning Crescent, 9% visible
METAR KNUW 052156Z 15029G40KT 10SM SCT030 SCT075 BKN095 OVC140 13/03 A2997 RMK AO2 PK WND 15040/2153 SLP149 T01280028 $
Pressure 29.97 in
Visibility 10.0 miles
Clouds Scattered Clouds 3000 ft
Scattered Clouds 7500 ft
Mostly Cloudy 9500 ft
Overcast 14000 ft
Dew Point 37 °F
Humidity 53%
Rainfall 0.00 in
Snow Depth Not available.
7:34 AM 5:15 PM
Waning Crescent, 9% visible
METAR KNUW 052156Z 15029G40KT 10SM SCT030 SCT075 BKN095 OVC140 13/03 A2997 RMK AO2 PK WND 15040/2153 SLP149 T01280028 $

10-Day Weather Forecast

Almanac

Astronomy

Feb. 05, 2016 Rise Set
Actual Time
Civil Twilight
Nautical Twilight
Astronomical Twilight
Moon
Length of Visible Light
Length of Day
Tomorrow will be .
, % of the Moon is Illuminated

Today's Extremes

State Highs State Lows

Community

WunderPhotos

Upload Photos

1,890,878 photos uploaded!

WunderBlog® & News

Nearby

Air Quality

  Air Quality AQ Index Pollutant
Not available.

Snow Depth

Station Depth Elevation

Earthquake Activity

City Distance Mag. Time & Date
Minimum magnitude displayed is 2.5.

Coastal Water Temperatures

Place Temperature

Stations

Nearby Weather Stations

Station Location Temp. Windchill Dew Point Humidity Wind Precip. Elev Updated Type
                   

Watches & Warnings

Wind Advisory
Issued: 4:00 AM PST Feb. 5, 2016 – National Weather Service

... Wind Advisory now in effect from 11 am this morning to 7 PM PST
this evening...

* timing... southeast winds will rise this morning... reaching their
peak during the afternoon hours. The winds should gradually ease
this evening.

* Winds... south to southeast winds should reach 20 to 35 mph with
gusts to 50 mph.

* Impacts... winds of this strength can blow down tree branches and
cause spotty power outages.

Precautionary/preparedness actions...

A Wind Advisory means that winds of 35 mph are expected. Winds this
strong can make driving difficult... especially for high profile
vehicles. Use extra caution.